createdAt,value
2022-09-14T00:01:14.443Z,59.51
2022-09-14T00:01:51.990Z,59.61
2022-09-14T00:02:52.007Z,59.80
2022-09-14T00:03:51.852Z,60.08
2022-09-14T00:04:51.866Z,59.70
2022-09-14T00:05:51.885Z,59.51
2022-09-14T00:06:51.905Z,59.41
2022-09-14T00:07:51.921Z,59.61
2022-09-14T00:08:52.050Z,59.70
2022-09-14T00:09:51.959Z,59.51
2022-09-14T00:10:51.975Z,59.12
2022-09-14T00:11:52.005Z,59.51
2022-09-14T00:12:52.016Z,59.70
2022-09-14T00:13:52.029Z,59.70
2022-09-14T00:14:52.051Z,59.80
2022-09-14T00:15:52.073Z,60.38
2022-09-14T00:16:52.237Z,60.08
2022-09-14T00:17:52.111Z,60.57
2022-09-14T00:18:52.126Z,60.38
2022-09-14T00:19:52.155Z,60.47
2022-09-14T00:20:52.162Z,61.52
2022-09-14T00:21:52.184Z,61.91
2022-09-14T00:22:52.197Z,61.62
2022-09-14T00:23:52.228Z,62.19
2022-09-14T00:24:52.276Z,62.77
2022-09-14T00:25:52.256Z,62.29
2022-09-14T00:26:52.283Z,61.52
2022-09-14T00:27:52.287Z,61.52
2022-09-14T00:28:52.312Z,63.54
2022-09-14T00:29:52.328Z,62.96
2022-09-14T00:30:52.352Z,62.39
2022-09-14T00:31:52.447Z,61.81
2022-09-14T00:32:52.391Z,61.81
2022-09-14T00:33:52.506Z,62.29
2022-09-14T00:34:52.423Z,61.81
2022-09-14T00:35:52.445Z,61.43
2022-09-14T00:36:52.457Z,61.05
2022-09-14T00:37:52.498Z,61.43
2022-09-14T00:38:52.497Z,61.91
2022-09-14T00:39:52.617Z,62.07
2022-09-14T00:40:52.558Z,62.48
2022-09-14T00:41:52.553Z,62.65
2022-09-14T00:42:52.572Z,62.84
2022-09-14T00:43:52.584Z,62.77
2022-09-14T00:44:52.605Z,62.87
2022-09-14T00:45:52.712Z,63.22
2022-09-14T00:46:52.641Z,63.25
2022-09-14T00:47:52.661Z,63.22
2022-09-14T00:48:52.687Z,63.64
2022-09-14T00:49:52.755Z,63.83
2022-09-14T00:50:52.720Z,64.12
2022-09-14T00:51:52.733Z,65.08
2022-09-14T00:52:52.755Z,64.98
2022-09-14T00:53:52.775Z,64.50
2022-09-14T00:54:52.791Z,64.50
2022-09-14T00:55:52.831Z,64.85
2022-09-14T00:56:52.849Z,66.10
2022-09-14T00:57:52.849Z,66.39
2022-09-14T00:58:52.864Z,66.19
2022-09-14T00:59:52.889Z,66.03
2022-09-14T01:00:52.979Z,66.29
2022-09-14T01:01:52.976Z,66.67
2022-09-14T01:02:52.942Z,66.49
2022-09-14T01:03:52.960Z,65.91
2022-09-14T01:04:52.976Z,66.00
2022-09-14T01:05:52.994Z,66.58
2022-09-14T01:06:53.009Z,66.96
2022-09-14T01:07:53.028Z,67.16
2022-09-14T01:08:53.046Z,66.86
2022-09-14T01:09:53.066Z,66.67
2022-09-14T01:10:53.092Z,66.58
2022-09-14T01:11:53.102Z,66.39
2022-09-14T01:12:53.168Z,66.67
2022-09-14T01:13:53.138Z,66.86
2022-09-14T01:14:53.163Z,66.39
2022-09-14T01:15:53.174Z,66.58
2022-09-14T01:16:53.285Z,66.49
2022-09-14T01:17:53.218Z,66.10
2022-09-14T01:18:53.231Z,66.39
2022-09-14T01:19:53.247Z,66.49
2022-09-14T01:20:53.267Z,66.39
2022-09-14T01:21:53.284Z,66.77
2022-09-14T01:22:53.481Z,66.67
2022-09-14T01:23:53.323Z,66.77
2022-09-14T01:24:53.347Z,66.96
2022-09-14T01:25:53.374Z,66.96
2022-09-14T01:26:53.493Z,67.16
2022-09-14T01:27:53.391Z,67.63
2022-09-14T01:28:53.434Z,68.30
2022-09-14T01:29:53.432Z,68.30
2022-09-14T01:30:53.449Z,68.75
2022-09-14T01:31:53.515Z,68.98
2022-09-14T01:32:53.485Z,68.27
2022-09-14T01:33:53.505Z,68.21
2022-09-14T01:34:53.524Z,68.40
2022-09-14T01:35:53.555Z,68.88
2022-09-14T01:36:53.663Z,68.59
2022-09-14T01:37:53.576Z,69.23
2022-09-14T01:38:53.597Z,69.36
2022-09-14T01:39:53.630Z,69.23
2022-09-14T01:40:53.633Z,69.33
2022-09-14T01:41:53.650Z,69.65
2022-09-14T01:42:53.708Z,69.62
2022-09-14T01:43:53.689Z,69.62
2022-09-14T01:44:53.729Z,69.52
2022-09-14T01:45:53.754Z,69.23
2022-09-14T01:46:53.742Z,69.23
2022-09-14T01:47:53.767Z,69.04
2022-09-14T01:48:53.778Z,70.00
2022-09-14T01:49:53.792Z,69.17
2022-09-14T01:50:53.815Z,69.23
2022-09-14T01:51:53.927Z,69.52
2022-09-14T01:52:53.849Z,69.81
2022-09-14T01:53:53.871Z,70.29
2022-09-14T01:54:53.901Z,70.38
2022-09-14T01:55:53.906Z,70.57
2022-09-14T01:56:53.918Z,71.15
2022-09-14T01:57:53.942Z,70.96
2022-09-14T01:58:53.954Z,71.72
2022-09-14T01:59:53.978Z,71.34
2022-09-14T02:00:54.147Z,70.96
2022-09-14T02:01:54.033Z,71.25
2022-09-14T02:02:54.029Z,71.63
2022-09-14T02:03:54.046Z,71.82
2022-09-14T02:04:54.063Z,71.92
2022-09-14T02:05:54.085Z,72.30
2022-09-14T02:06:54.106Z,72.11
2022-09-14T02:07:54.118Z,72.59
2022-09-14T02:08:54.141Z,72.59
2022-09-14T02:09:54.159Z,72.97
2022-09-14T02:10:54.172Z,73.26
2022-09-14T02:11:54.193Z,73.35
2022-09-14T02:12:54.212Z,73.65
2022-09-14T02:13:54.225Z,73.93
2022-09-14T02:14:54.248Z,73.74
2022-09-14T02:15:54.330Z,73.83
2022-09-14T02:16:54.308Z,73.93
2022-09-14T02:17:54.308Z,73.65
2022-09-14T02:18:54.319Z,73.74
2022-09-14T02:19:54.332Z,73.93
2022-09-14T02:20:54.356Z,74.02
2022-09-14T02:21:54.373Z,73.83
2022-09-14T02:22:54.392Z,74.60
2022-09-14T02:23:54.487Z,74.02
2022-09-14T02:24:54.425Z,73.93
2022-09-14T02:25:54.444Z,73.93
2022-09-14T02:26:54.464Z,73.93
2022-09-14T02:27:54.475Z,73.93
2022-09-14T02:28:54.498Z,73.55
2022-09-14T02:29:54.514Z,73.65
2022-09-14T02:30:54.563Z,74.02
2022-09-14T02:31:54.581Z,73.35
2022-09-14T02:32:54.591Z,73.45
2022-09-14T02:33:54.586Z,74.02
2022-09-14T02:34:54.609Z,74.12
2022-09-14T02:35:54.621Z,74.02
2022-09-14T02:36:54.647Z,73.55
2022-09-14T02:37:54.656Z,73.55
2022-09-14T02:38:54.680Z,73.74
2022-09-14T02:39:54.798Z,73.74
2022-09-14T02:40:54.713Z,73.93
2022-09-14T02:41:54.728Z,71.72
2022-09-14T02:42:54.749Z,69.90
2022-09-14T02:43:54.761Z,69.81
2022-09-14T02:44:54.784Z,69.33
2022-09-14T02:45:54.811Z,69.20
2022-09-14T02:46:54.847Z,68.62
2022-09-14T02:47:54.839Z,69.10
2022-09-14T02:48:54.878Z,68.72
2022-09-14T02:49:54.871Z,69.39
2022-09-14T02:50:54.890Z,68.72
2022-09-14T02:51:54.904Z,68.81
2022-09-14T02:52:54.926Z,68.91
2022-09-14T02:53:54.948Z,68.62
2022-09-14T02:54:54.962Z,68.81
2022-09-14T02:55:54.977Z,68.81
2022-09-14T02:56:54.993Z,68.43
2022-09-14T02:57:55.014Z,68.24
2022-09-14T02:58:55.029Z,68.43
2022-09-14T02:59:55.071Z,68.72
2022-09-14T03:00:55.145Z,69.01
2022-09-14T03:01:55.159Z,68.91
2022-09-14T03:02:55.105Z,69.07
2022-09-14T03:03:55.125Z,71.17
2022-09-14T03:04:55.160Z,71.78
2022-09-14T03:05:55.155Z,72.74
2022-09-14T03:06:55.174Z,72.55
2022-09-14T03:07:55.192Z,74.76
2022-09-14T03:08:55.224Z,73.41
2022-09-14T03:09:55.228Z,71.84
2022-09-14T03:10:55.242Z,71.75
2022-09-14T03:11:55.262Z,72.27
2022-09-14T03:12:55.383Z,72.90
2022-09-14T03:13:55.299Z,73.95
2022-09-14T03:14:55.310Z,74.24
2022-09-14T03:15:55.394Z,75.01
2022-09-14T03:16:55.354Z,75.68
2022-09-14T03:17:55.366Z,74.91
2022-09-14T03:18:55.381Z,75.77
2022-09-14T03:19:55.398Z,75.77
2022-09-14T03:20:55.440Z,75.48
2022-09-14T03:21:55.440Z,75.96
2022-09-14T03:22:55.453Z,76.92
2022-09-14T03:23:55.469Z,76.06
2022-09-14T03:24:55.502Z,76.54
2022-09-14T03:25:55.503Z,77.02
2022-09-14T03:26:55.525Z,76.25
2022-09-14T03:27:55.534Z,76.19
2022-09-14T03:28:55.563Z,75.14
2022-09-14T03:29:55.568Z,75.23
2022-09-14T03:30:55.673Z,75.62
2022-09-14T03:31:55.627Z,76.10
2022-09-14T03:32:55.628Z,75.90
2022-09-14T03:33:55.643Z,75.81
2022-09-14T03:34:55.777Z,76.10
2022-09-14T03:35:55.687Z,75.81
2022-09-14T03:36:55.720Z,75.23
2022-09-14T03:37:55.712Z,75.14
2022-09-14T03:38:55.724Z,75.04
2022-09-14T03:39:55.767Z,74.85
2022-09-14T03:40:55.767Z,74.37
2022-09-14T03:41:55.787Z,74.95
2022-09-14T03:42:55.799Z,75.04
2022-09-14T03:43:55.842Z,75.23
2022-09-14T03:44:55.830Z,76.00
2022-09-14T03:45:55.853Z,76.10
2022-09-14T03:46:55.975Z,75.81
2022-09-14T03:47:55.886Z,75.14
2022-09-14T03:48:55.905Z,75.14
2022-09-14T03:49:55.916Z,74.66
2022-09-14T03:50:55.933Z,73.90
2022-09-14T03:51:59.675Z,73.80
2022-09-14T03:52:56.050Z,73.51
2022-09-14T03:53:56.089Z,73.51
2022-09-14T03:54:56.004Z,72.84
2022-09-14T03:55:56.017Z,73.03
2022-09-14T03:56:56.046Z,72.45
2022-09-14T03:57:56.054Z,72.59
2022-09-14T03:58:56.076Z,72.64
2022-09-14T03:59:56.109Z,72.36
2022-09-14T04:00:56.108Z,72.94
2022-09-14T04:01:56.269Z,72.97
2022-09-14T04:02:56.254Z,72.30
2022-09-14T04:03:56.161Z,72.39
2022-09-14T04:04:56.178Z,72.30
2022-09-14T04:05:56.194Z,72.39
2022-09-14T04:06:56.214Z,72.88
2022-09-14T04:07:56.232Z,72.88
2022-09-14T04:08:56.282Z,72.45
2022-09-14T04:09:56.261Z,72.55
2022-09-14T04:10:56.281Z,72.97
2022-09-14T04:11:56.300Z,72.94
2022-09-14T04:12:56.320Z,72.20
2022-09-14T04:13:56.339Z,72.36
2022-09-14T04:14:56.353Z,72.36
2022-09-14T04:15:56.422Z,73.16
2022-09-14T04:16:56.392Z,72.59
2022-09-14T04:17:56.410Z,72.84
2022-09-14T04:18:56.423Z,73.03
2022-09-14T04:19:56.437Z,73.22
2022-09-14T04:20:56.468Z,73.70
2022-09-14T04:21:56.474Z,73.80
2022-09-14T04:22:56.508Z,73.80
2022-09-14T04:24:14.173Z,73.90
2022-09-14T04:24:56.581Z,73.80
2022-09-14T04:25:56.544Z,73.80
2022-09-14T04:26:56.566Z,73.99
2022-09-14T04:28:19.146Z,73.80
2022-09-14T04:28:56.598Z,73.99
2022-09-14T04:29:56.624Z,73.03
2022-09-14T04:30:56.711Z,73.70
2022-09-14T04:31:56.653Z,73.51
2022-09-14T04:32:56.667Z,73.90
2022-09-14T04:33:56.688Z,73.80
2022-09-14T04:34:56.704Z,73.70
2022-09-14T04:35:56.821Z,74.27
2022-09-14T04:36:56.737Z,74.37
2022-09-14T04:37:56.752Z,74.37
2022-09-14T04:38:56.778Z,74.85
2022-09-14T04:39:56.853Z,74.57
2022-09-14T04:40:56.918Z,74.95
2022-09-14T04:41:56.828Z,75.33
2022-09-14T04:42:56.840Z,75.23
2022-09-14T04:43:56.869Z,75.39
2022-09-14T04:44:56.876Z,75.39
2022-09-14T04:45:56.895Z,75.58
2022-09-14T04:46:56.950Z,75.48
2022-09-14T04:47:56.934Z,75.87
2022-09-14T04:48:56.950Z,76.06
2022-09-14T04:49:56.971Z,75.77
2022-09-14T04:50:56.984Z,75.87
2022-09-14T04:51:57.006Z,75.77
2022-09-14T04:52:57.024Z,75.58
2022-09-14T04:53:57.156Z,75.68
2022-09-14T04:54:57.055Z,75.58
2022-09-14T04:55:57.068Z,75.01
2022-09-14T04:56:57.191Z,75.04
2022-09-14T04:57:57.116Z,75.20
2022-09-14T04:58:57.128Z,74.72
2022-09-14T04:59:57.138Z,74.85
2022-09-14T05:00:57.155Z,74.95
2022-09-14T05:01:57.236Z,74.95
2022-09-14T05:02:57.249Z,75.23
2022-09-14T05:03:57.209Z,75.23
2022-09-14T05:04:57.225Z,74.95
2022-09-14T05:05:57.244Z,75.33
2022-09-14T05:06:57.261Z,74.95
2022-09-14T05:07:57.281Z,74.57
2022-09-14T05:08:57.304Z,75.23
2022-09-14T05:09:57.313Z,74.52
2022-09-14T05:10:57.329Z,74.57
2022-09-14T05:11:57.345Z,74.27
2022-09-14T05:12:57.399Z,74.66
2022-09-14T05:13:57.377Z,74.85
2022-09-14T05:14:57.405Z,74.85
2022-09-14T05:15:57.435Z,74.57
2022-09-14T05:16:57.444Z,75.04
2022-09-14T05:17:57.448Z,75.14
2022-09-14T05:18:57.468Z,75.33
2022-09-14T05:19:57.489Z,75.04
2022-09-14T05:20:57.505Z,74.72
2022-09-14T05:21:57.522Z,75.14
2022-09-14T05:22:57.569Z,75.23
2022-09-14T05:23:57.562Z,75.04
2022-09-14T05:24:57.587Z,75.14
2022-09-14T05:25:57.595Z,75.23
2022-09-14T05:27:01.040Z,75.04
2022-09-14T05:27:57.625Z,75.52
2022-09-14T05:28:57.758Z,75.23
2022-09-14T05:29:57.659Z,75.62
2022-09-14T05:30:57.776Z,75.90
2022-09-14T05:31:57.704Z,75.23
2022-09-14T05:32:58.247Z,75.14
2022-09-14T05:33:57.728Z,75.52
2022-09-14T05:34:57.746Z,75.81
2022-09-14T05:35:57.764Z,75.81
2022-09-14T05:36:57.778Z,75.90
2022-09-14T05:37:57.800Z,75.62
2022-09-14T05:38:57.820Z,75.52
2022-09-14T05:39:57.903Z,75.04
2022-09-14T05:40:57.851Z,75.62
2022-09-14T05:41:57.869Z,75.81
2022-09-14T05:42:57.889Z,76.00
2022-09-14T05:43:57.904Z,75.43
2022-09-14T05:44:57.959Z,75.33
2022-09-14T05:45:57.977Z,75.52
2022-09-14T05:46:57.957Z,76.57
2022-09-14T05:47:57.972Z,75.62
2022-09-14T05:48:57.986Z,75.33
2022-09-14T05:49:58.008Z,75.04
2022-09-14T05:50:58.029Z,75.87
2022-09-14T05:51:58.046Z,76.92
2022-09-14T05:52:58.064Z,76.64
2022-09-14T05:53:58.084Z,77.50
2022-09-14T05:54:58.101Z,79.22
2022-09-14T05:55:58.114Z,78.55
2022-09-14T05:56:58.133Z,79.60
2022-09-14T05:57:58.152Z,79.80
2022-09-14T05:58:58.170Z,80.94
2022-09-14T05:59:58.181Z,81.90
2022-09-14T06:00:58.222Z,82.09
2022-09-14T06:01:58.325Z,83.92
2022-09-14T06:02:58.234Z,85.25
2022-09-14T06:03:58.269Z,84.74
2022-09-14T06:04:58.338Z,84.06
2022-09-14T06:05:58.289Z,85.02
2022-09-14T06:07:17.355Z,85.21
2022-09-14T06:07:58.325Z,85.21
2022-09-14T06:08:58.340Z,85.94
2022-09-14T06:09:58.363Z,86.65
2022-09-14T06:10:58.373Z,86.61
2022-09-14T06:11:58.390Z,86.80
2022-09-14T06:12:58.406Z,87.85
2022-09-14T06:13:58.427Z,87.66
2022-09-14T06:14:58.438Z,88.23
2022-09-14T06:15:58.461Z,88.71
2022-09-14T06:16:58.521Z,88.33
2022-09-14T06:17:58.494Z,87.85
2022-09-14T06:18:58.507Z,87.76
2022-09-14T06:20:03.520Z,89.76
2022-09-14T06:20:58.542Z,89.48
2022-09-14T06:21:58.562Z,90.05
2022-09-14T06:22:58.579Z,90.44
2022-09-14T06:23:58.597Z,90.05
2022-09-14T06:24:58.611Z,90.44
2022-09-14T06:25:58.626Z,89.86
2022-09-14T06:26:58.645Z,90.82
2022-09-14T06:27:58.659Z,90.82
2022-09-14T06:28:58.678Z,90.15
2022-09-14T06:29:58.737Z,89.58
2022-09-14T06:30:58.713Z,89.38
2022-09-14T06:31:58.729Z,88.43
2022-09-14T06:32:58.768Z,87.85
2022-09-14T06:33:58.771Z,87.56
2022-09-14T06:34:58.777Z,87.90
2022-09-14T06:35:58.795Z,87.51
2022-09-14T06:36:58.811Z,88.37
2022-09-14T06:37:58.826Z,88.76
2022-09-14T06:38:58.845Z,89.33
2022-09-14T06:39:58.924Z,89.72
2022-09-14T06:40:58.878Z,87.90
2022-09-14T06:41:58.894Z,87.80
2022-09-14T06:42:58.911Z,86.08
2022-09-14T06:43:58.931Z,84.58
2022-09-14T06:44:58.946Z,84.68
2022-09-14T06:45:58.961Z,84.49
2022-09-14T06:46:59.031Z,83.92
2022-09-14T06:47:58.998Z,83.25
2022-09-14T06:48:59.122Z,83.15
2022-09-14T06:49:59.067Z,83.34
2022-09-14T06:50:59.045Z,83.53
2022-09-14T06:51:59.060Z,83.44
2022-09-14T06:52:59.081Z,84.20
2022-09-14T06:53:59.094Z,83.92
2022-09-14T06:54:59.113Z,83.72
2022-09-14T06:55:59.131Z,85.35
2022-09-14T06:56:59.149Z,88.42
2022-09-14T06:57:59.166Z,87.17
2022-09-14T06:58:59.191Z,87.94
2022-09-14T06:59:59.198Z,88.70
2022-09-14T07:00:59.222Z,88.70
2022-09-14T07:01:59.230Z,88.51
2022-09-14T07:02:59.297Z,88.90
2022-09-14T07:03:59.370Z,88.95
2022-09-14T07:04:59.393Z,88.56
2022-09-14T07:05:59.299Z,89.04
2022-09-14T07:06:59.320Z,89.14
2022-09-14T07:07:59.341Z,89.81
2022-09-14T07:08:59.355Z,90.29
2022-09-14T07:09:59.379Z,90.86
2022-09-14T07:10:59.388Z,90.39
2022-09-14T07:11:59.404Z,90.19
2022-09-14T07:12:59.418Z,90.29
2022-09-14T07:13:59.437Z,90.09
2022-09-14T07:14:59.456Z,89.43
2022-09-14T07:15:59.469Z,91.63
2022-09-14T07:16:59.489Z,92.21
2022-09-14T07:17:59.502Z,92.87
2022-09-14T07:18:59.547Z,93.74
2022-09-14T07:19:59.533Z,93.74
2022-09-14T07:21:03.485Z,93.54
2022-09-14T07:21:59.574Z,94.21
2022-09-14T07:22:59.592Z,95.65
2022-09-14T07:23:59.607Z,94.40
2022-09-14T07:24:59.618Z,94.12
2022-09-14T07:25:59.637Z,94.21
2022-09-14T07:26:59.655Z,93.54
2022-09-14T07:27:59.673Z,95.17
2022-09-14T07:28:59.691Z,95.36
2022-09-14T07:29:59.707Z,96.13
2022-09-14T07:30:59.782Z,96.32
2022-09-14T07:31:59.739Z,95.17
2022-09-14T07:32:59.759Z,95.36
2022-09-14T07:33:59.772Z,94.60
2022-09-14T07:34:59.789Z,94.12
2022-09-14T07:35:59.815Z,93.74
2022-09-14T07:36:59.931Z,92.49
2022-09-14T07:37:59.840Z,91.34
2022-09-14T07:38:59.860Z,91.72
2022-09-14T07:39:59.896Z,93.74
2022-09-14T07:40:59.893Z,93.54
2022-09-14T07:41:59.911Z,91.77
2022-09-14T07:42:59.926Z,92.92
2022-09-14T07:43:59.947Z,92.15
2022-09-14T07:44:59.959Z,92.82
2022-09-14T07:46:00.018Z,94.02
2022-09-14T07:47:00.098Z,93.78
2022-09-14T07:48:00.008Z,92.06
2022-09-14T07:49:00.027Z,92.44
2022-09-14T07:50:00.061Z,94.50
2022-09-14T07:51:00.081Z,99.99
2022-09-14T07:52:00.177Z,99.99
2022-09-14T07:53:00.135Z,99.99
2022-09-14T07:54:00.113Z,99.99
2022-09-14T07:55:00.138Z,98.91
2022-09-14T07:56:00.143Z,96.22
2022-09-14T07:57:00.260Z,95.75
2022-09-14T07:58:00.183Z,96.75
2022-09-14T07:59:17.641Z,92.73
2022-09-14T08:00:00.259Z,91.19
2022-09-14T08:01:00.271Z,91.19
2022-09-14T08:02:00.421Z,92.49
2022-09-14T08:03:00.286Z,92.11
2022-09-14T08:04:04.710Z,92.78
2022-09-14T08:05:00.312Z,91.82
2022-09-14T08:06:00.316Z,94.26
2022-09-14T08:07:00.333Z,94.12
2022-09-14T08:08:00.349Z,94.89
2022-09-14T08:09:00.392Z,94.60
2022-09-14T08:10:00.397Z,93.74
2022-09-14T08:11:00.411Z,95.46
2022-09-14T08:12:00.423Z,95.65
2022-09-14T08:13:00.434Z,98.43
2022-09-14T08:14:00.448Z,97.95
2022-09-14T08:15:00.462Z,94.89
2022-09-14T08:16:00.485Z,94.21
2022-09-14T08:17:00.610Z,95.17
2022-09-14T08:18:00.518Z,94.60
2022-09-14T08:19:00.535Z,96.22
2022-09-14T08:20:00.550Z,96.70
2022-09-14T08:21:00.565Z,94.31
2022-09-14T08:22:00.586Z,94.12
2022-09-14T08:23:00.607Z,94.31
2022-09-14T08:24:00.615Z,94.60
2022-09-14T08:25:00.654Z,94.50
2022-09-14T08:26:00.657Z,96.80
2022-09-14T08:27:00.669Z,97.75
2022-09-14T08:28:00.685Z,96.51
2022-09-14T08:29:00.700Z,96.70
2022-09-14T08:30:00.718Z,98.38
2022-09-14T08:31:00.738Z,95.03
2022-09-14T08:32:00.810Z,95.31
2022-09-14T08:33:01.999Z,94.35
2022-09-14T08:34:00.784Z,92.73
2022-09-14T08:35:00.803Z,92.82
2022-09-14T08:36:00.817Z,92.82
2022-09-14T08:37:00.839Z,92.92
2022-09-14T08:38:00.854Z,93.02
2022-09-14T08:39:00.870Z,92.82
2022-09-14T08:40:00.932Z,92.35
2022-09-14T08:41:00.941Z,93.21
2022-09-14T08:42:00.924Z,93.69
2022-09-14T08:43:00.935Z,93.11
2022-09-14T08:44:00.950Z,91.77
2022-09-14T08:45:00.972Z,93.02
2022-09-14T08:46:01.166Z,91.86
2022-09-14T08:47:01.011Z,95.41
2022-09-14T08:48:01.025Z,93.88
2022-09-14T08:49:01.056Z,94.69
2022-09-14T08:50:01.059Z,93.54
2022-09-14T08:51:01.084Z,93.69
2022-09-14T08:52:01.092Z,93.88
2022-09-14T08:53:01.109Z,95.03
2022-09-14T08:54:01.125Z,94.74
2022-09-14T08:55:01.144Z,94.07
2022-09-14T08:56:01.165Z,94.55
2022-09-14T08:57:01.200Z,94.26
2022-09-14T08:58:01.192Z,95.03
2022-09-14T08:59:01.212Z,95.98
2022-09-14T09:00:01.231Z,94.45
2022-09-14T09:01:01.351Z,94.84
2022-09-14T09:02:01.260Z,94.79
2022-09-14T09:03:01.278Z,94.79
2022-09-14T09:04:01.378Z,95.75
2022-09-14T09:05:01.318Z,96.89
2022-09-14T09:06:01.332Z,98.43
2022-09-14T09:07:01.346Z,99.99
2022-09-14T09:08:01.361Z,99.99
2022-09-14T09:09:01.384Z,99.99
2022-09-14T09:10:01.424Z,99.99
2022-09-14T09:11:01.412Z,99.99
2022-09-14T09:12:01.438Z,99.99
2022-09-14T09:13:01.480Z,99.99
2022-09-14T09:14:01.460Z,99.99
2022-09-14T09:15:01.476Z,99.99
2022-09-14T09:16:01.521Z,99.99
2022-09-14T09:17:01.513Z,99.99
2022-09-14T09:18:01.531Z,99.99
2022-09-14T09:19:01.572Z,99.99
2022-09-14T09:20:01.566Z,99.99
2022-09-14T09:21:01.582Z,99.99
2022-09-14T09:22:01.599Z,99.99
2022-09-14T09:23:01.615Z,99.99
2022-09-14T09:24:01.631Z,99.99
2022-09-14T09:25:01.751Z,99.99
2022-09-14T09:26:01.667Z,99.99
2022-09-14T09:27:01.679Z,99.99
2022-09-14T09:28:01.693Z,99.99
2022-09-14T09:29:01.823Z,99.99
2022-09-14T09:30:01.735Z,99.99
2022-09-14T09:31:01.777Z,99.99
2022-09-14T09:32:01.855Z,99.99
2022-09-14T09:33:01.784Z,99.99
2022-09-14T09:34:01.801Z,99.99
2022-09-14T09:35:01.815Z,99.48
2022-09-14T09:36:01.829Z,99.99
2022-09-14T09:37:01.849Z,99.99
2022-09-14T09:38:01.863Z,99.99
2022-09-14T09:39:05.121Z,99.96
2022-09-14T09:40:01.980Z,99.99
2022-09-14T09:41:01.915Z,99.99
2022-09-14T09:42:01.937Z,99.99
2022-09-14T09:43:01.946Z,99.99
2022-09-14T09:44:01.963Z,99.99
2022-09-14T09:45:03.860Z,99.99
2022-09-14T09:46:01.996Z,99.77
2022-09-14T09:47:02.217Z,98.05
2022-09-14T09:48:02.034Z,98.00
2022-09-14T09:49:02.125Z,95.07
2022-09-14T09:50:02.064Z,96.80
2022-09-14T09:51:02.084Z,98.43
2022-09-14T09:52:02.101Z,98.33
2022-09-14T09:53:06.582Z,98.33
2022-09-14T09:54:02.134Z,99.19
2022-09-14T09:55:02.253Z,99.43
2022-09-14T09:56:02.167Z,97.52
2022-09-14T09:57:02.185Z,98.47
2022-09-14T09:58:02.199Z,93.98
2022-09-14T09:59:02.218Z,96.08
2022-09-14T10:00:02.230Z,94.26
2022-09-14T10:01:02.343Z,94.64
2022-09-14T10:02:02.364Z,92.82
2022-09-14T10:03:02.435Z,95.12
2022-09-14T10:04:02.298Z,94.07
2022-09-14T10:05:02.324Z,93.69
2022-09-14T10:06:02.333Z,97.33
2022-09-14T10:07:02.350Z,95.12
2022-09-14T10:08:02.364Z,93.11
2022-09-14T10:09:02.380Z,93.11
2022-09-14T10:10:02.401Z,92.58
2022-09-14T10:11:02.416Z,93.64
2022-09-14T10:12:02.434Z,95.17
2022-09-14T10:13:02.553Z,97.28
2022-09-14T10:14:02.464Z,97.71
2022-09-14T10:15:02.485Z,96.27
2022-09-14T10:16:02.568Z,95.98
2022-09-14T10:17:02.542Z,96.56
2022-09-14T10:18:02.531Z,98.00
2022-09-14T10:19:02.551Z,97.80
2022-09-14T10:20:02.568Z,96.84
2022-09-14T10:21:02.584Z,96.18
2022-09-14T10:22:02.612Z,95.98
2022-09-14T10:23:02.623Z,96.27
2022-09-14T10:24:02.666Z,95.31
2022-09-14T10:25:02.658Z,96.75
2022-09-14T10:26:02.667Z,97.71
2022-09-14T10:27:02.680Z,97.95
2022-09-14T10:28:02.699Z,95.94
2022-09-14T10:29:02.716Z,97.95
2022-09-14T10:30:02.734Z,95.56
2022-09-14T10:31:02.814Z,95.46
2022-09-14T10:32:02.766Z,94.21
2022-09-14T10:33:02.821Z,94.02
2022-09-14T10:34:02.803Z,91.91
2022-09-14T10:35:02.819Z,92.30
2022-09-14T10:36:02.833Z,93.54
2022-09-14T10:37:02.852Z,93.63
2022-09-14T10:38:02.869Z,93.83
2022-09-14T10:39:02.882Z,93.26
2022-09-14T10:40:02.981Z,91.86
2022-09-14T10:41:02.917Z,93.21
2022-09-14T10:42:02.940Z,94.26
2022-09-14T10:43:02.952Z,94.84
2022-09-14T10:44:02.980Z,93.69
2022-09-14T10:45:02.991Z,94.35
2022-09-14T10:46:03.063Z,95.31
2022-09-14T10:47:04.960Z,94.35
2022-09-14T10:48:03.038Z,95.36
2022-09-14T10:49:03.139Z,94.69
2022-09-14T10:50:03.072Z,92.49
2022-09-14T10:51:03.097Z,93.63
2022-09-14T10:52:03.102Z,92.72
2022-09-14T10:53:03.121Z,91.34
2022-09-14T10:54:03.139Z,94.40
2022-09-14T10:55:03.159Z,93.40
2022-09-14T10:56:03.174Z,92.44
2022-09-14T10:57:03.192Z,93.88
2022-09-14T10:58:03.206Z,92.72
2022-09-14T10:59:03.224Z,93.21
2022-09-14T11:00:03.240Z,91.82
2022-09-14T11:01:03.275Z,95.31
2022-09-14T11:02:03.568Z,93.40
2022-09-14T11:03:03.385Z,92.30
2022-09-14T11:04:03.315Z,93.83
2022-09-14T11:05:03.349Z,92.39
2022-09-14T11:06:03.344Z,93.63
2022-09-14T11:07:03.367Z,93.93
2022-09-14T11:08:03.380Z,93.54
2022-09-14T11:09:03.495Z,93.73
2022-09-14T11:10:03.434Z,93.16
2022-09-14T11:11:03.428Z,94.40
2022-09-14T11:12:03.447Z,93.83
2022-09-14T11:13:03.466Z,92.82
2022-09-14T11:14:03.482Z,91.00
2022-09-14T11:15:03.498Z,90.42
2022-09-14T11:16:03.647Z,90.33
2022-09-14T11:17:03.539Z,89.41
2022-09-14T11:18:03.552Z,88.35
2022-09-14T11:19:03.564Z,87.98
2022-09-14T11:20:03.584Z,88.02
2022-09-14T11:21:03.677Z,89.12
2022-09-14T11:22:03.624Z,87.88
2022-09-14T11:23:03.634Z,89.79
2022-09-14T11:24:03.653Z,88.07
2022-09-14T11:25:03.668Z,85.52
2022-09-14T11:26:03.683Z,84.70
2022-09-14T11:27:03.705Z,83.16
2022-09-14T11:28:03.724Z,83.20
2022-09-14T11:29:03.752Z,80.51
2022-09-14T11:30:03.758Z,79.92
2022-09-14T11:31:03.857Z,78.19
2022-09-14T11:32:20.431Z,80.88
2022-09-14T11:33:03.839Z,77.17
2022-09-14T11:34:03.828Z,75.67
2022-09-14T11:35:03.844Z,75.63
2022-09-14T11:36:03.860Z,75.69
2022-09-14T11:37:03.904Z,78.25
2022-09-14T11:38:03.925Z,76.81
2022-09-14T11:39:06.884Z,76.71
2022-09-14T11:40:04.029Z,75.94
2022-09-14T11:41:03.952Z,76.26
2022-09-14T11:42:03.970Z,77.51
2022-09-14T11:43:03.998Z,75.05
2022-09-14T11:44:04.003Z,72.55
2022-09-14T11:45:04.024Z,73.71
2022-09-14T11:46:04.095Z,75.92
2022-09-14T11:47:04.062Z,76.11
2022-09-14T11:48:09.471Z,74.32
2022-09-14T11:49:04.098Z,74.45
2022-09-14T11:50:04.114Z,73.39
2022-09-14T11:51:04.134Z,72.81
2022-09-14T11:52:04.149Z,73.20
2022-09-14T11:53:04.283Z,72.63
2022-09-14T11:54:04.196Z,74.16
2022-09-14T11:55:04.208Z,72.81
2022-09-14T11:56:04.228Z,72.78
2022-09-14T11:57:04.259Z,73.55
2022-09-14T11:58:04.266Z,75.07
2022-09-14T11:59:04.311Z,72.75
2022-09-14T12:00:04.304Z,71.44
2022-09-14T12:01:04.328Z,70.86
2022-09-14T12:02:04.343Z,68.96
2022-09-14T12:03:04.487Z,70.02
2022-09-14T12:04:04.477Z,69.67
2022-09-14T12:05:04.405Z,71.79
2022-09-14T12:06:04.423Z,73.47
2022-09-14T12:07:04.443Z,71.00
2022-09-14T12:08:04.460Z,69.67
2022-09-14T12:09:04.506Z,71.79
2022-09-14T12:10:04.502Z,69.90
2022-09-14T12:11:04.520Z,70.62
2022-09-14T12:12:04.538Z,74.63
2022-09-14T12:13:04.557Z,76.61
2022-09-14T12:14:04.588Z,77.13
2022-09-14T12:15:04.601Z,75.15
2022-09-14T12:16:04.841Z,75.86
2022-09-14T12:17:17.598Z,72.63
2022-09-14T12:18:04.657Z,72.72
2022-09-14T12:19:04.677Z,71.50
2022-09-14T12:20:04.699Z,70.73
2022-09-14T12:21:04.719Z,69.87
2022-09-14T12:22:04.743Z,71.70
2022-09-14T12:23:04.755Z,71.41
2022-09-14T12:24:04.776Z,70.35
2022-09-14T12:25:04.825Z,71.70
2022-09-14T12:26:04.817Z,71.18
2022-09-14T12:27:04.837Z,72.68
2022-09-14T12:28:04.857Z,72.53
2022-09-14T12:29:04.975Z,71.47
2022-09-14T12:30:04.895Z,71.47
2022-09-14T12:31:05.109Z,71.50
2022-09-14T12:32:04.935Z,70.25
2022-09-14T12:33:04.957Z,69.42
2022-09-14T12:34:04.984Z,69.74
2022-09-14T12:35:05.011Z,68.01
2022-09-14T12:36:05.023Z,68.52
2022-09-14T12:37:09.941Z,70.10
2022-09-14T12:38:05.060Z,66.97
2022-09-14T12:39:05.082Z,66.11
2022-09-14T12:40:05.171Z,67.69
2022-09-14T12:41:05.230Z,66.43
2022-09-14T12:42:05.140Z,64.89
2022-09-14T12:43:05.160Z,65.34
2022-09-14T12:44:05.193Z,67.30
2022-09-14T12:45:05.202Z,67.94
2022-09-14T12:46:05.364Z,68.32
2022-09-14T12:47:05.244Z,69.84
2022-09-14T12:48:05.271Z,66.40
2022-09-14T12:49:05.284Z,66.39
2022-09-14T12:50:05.319Z,69.25
2022-09-14T12:51:05.330Z,69.54
2022-09-14T12:52:05.348Z,69.51
2022-09-14T12:53:05.373Z,67.36